Time;durP1;ratioP1;P1;durP2;ratioP2;P2;SDS_P1;SDS_P2;PMS_P1;PMS_P2;Temp;Humidity;BMP_temperature;BMP_pressure;BME280_temperature;BME280_humidity;BME280_pressure;Samples;Min_cycle;Max_cycle;Signal;HPM_P1;HPM_P2
2023/05/13 00:00:26;;;;;;;;;;;12.10;22.70;;;;;;5062160;28;19924;-75
2023/05/13 00:02:52;;;;;;;;;;;12.10;32.80;;;;;;5069255;28;19924;-75
2023/05/13 00:05:17;;;;;;;;;;;12.00;28.70;;;;;;5052552;28;19929;-76
2023/05/13 00:07:43;;;;;;;;;;;12.10;30.10;;;;;;5070780;28;19931;-75
2023/05/13 00:10:08;;;;;;;;;;;12.00;32.10;;;;;;5069062;28;19924;-75
2023/05/13 00:12:34;;;;;;;;;;;12.00;31.40;;;;;;5059633;28;19924;-75
2023/05/13 00:15:00;;;;;;;;;;;12.00;25.90;;;;;;5066524;28;19928;-75
2023/05/13 00:17:26;;;;;;;;;;;11.90;34.90;;;;;;5061316;28;20301;-75
2023/05/13 00:19:51;;;;;;;;;;;11.90;41.30;;;;;;5055761;28;19936;-75
2023/05/13 00:22:17;;;;;;;;;;;11.90;42.40;;;;;;5070253;28;20023;-75
2023/05/13 00:24:42;;;;;;;;;;;11.90;36.30;;;;;;5072506;28;20446;-76
2023/05/13 00:27:09;;;;;;;;;;;11.80;39.60;;;;;;5072989;28;19924;-75
2023/05/13 00:29:34;;;;;;;;;;;11.80;43.50;;;;;;5070588;28;19928;-75
2023/05/13 00:32:00;;;;;;;;;;;11.80;39.30;;;;;;5041876;28;19924;-75
2023/05/13 00:34:26;;;;;;;;;;;11.70;41.90;;;;;;5042276;28;19928;-75
2023/05/13 00:36:51;;;;;;;;;;;11.80;51.30;;;;;;5043982;28;19929;-75
2023/05/13 00:39:17;;;;;;;;;;;11.70;38.00;;;;;;5069075;28;19935;-75
2023/05/13 00:41:43;;;;;;;;;;;11.70;36.70;;;;;;5061319;28;19932;-75
2023/05/13 00:44:08;;;;;;;;;;;11.70;56.00;;;;;;5059631;28;19978;-75
2023/05/13 00:46:35;;;;;;;;;;;11.60;58.40;;;;;;5051236;28;20225;-75
2023/05/13 00:49:00;;;;;;;;;;;11.60;50.00;;;;;;5053243;28;19939;-75
2023/05/13 00:51:26;;;;;;;;;;;11.60;46.80;;;;;;5064486;28;19924;-75
2023/05/13 00:53:52;;;;;;;;;;;11.60;55.60;;;;;;5069356;28;20065;-75
2023/05/13 00:56:20;;;;;;;;;;;11.60;47.80;;;;;;5057302;28;19974;-75
2023/05/13 00:58:46;;;;;;;;;;;11.60;50.80;;;;;;5023125;28;20007;-75
2023/05/13 01:01:12;;;;;;;;;;;11.60;48.00;;;;;;5069339;28;20070;-75
2023/05/13 01:03:52;;;;;;;;;;;11.50;44.30;;;;;;5071588;28;19967;-75
2023/05/13 01:06:25;;;;;;;;;;;11.50;45.10;;;;;;5067563;28;19932;-76
2023/05/13 01:08:54;;;;;;;;;;;11.80;44.70;;;;;;5062910;28;19939;-75
2023/05/13 01:11:27;;;;;;;;;;;11.50;45.00;;;;;;5063100;28;19931;-75
2023/05/13 01:13:57;;;;;;;;;;;11.50;54.80;;;;;;5066991;28;19993;-75
2023/05/13 01:16:33;;;;;;;;;;;11.50;51.80;;;;;;5038685;28;19932;-75
2023/05/13 01:19:01;;;;;;;;;;;11.40;48.00;;;;;;5062126;28;19924;-75
2023/05/13 01:21:27;;;;;;;;;;;11.40;55.80;;;;;;5069540;28;19921;-75
2023/05/13 01:23:52;;;;;;;;;;;11.40;62.80;;;;;;5069938;28;19977;-75
2023/05/13 01:26:19;;;;;;;;;;;11.30;56.00;;;;;;5063739;28;20014;-75
2023/05/13 01:28:45;;;;;;;;;;;11.30;59.60;;;;;;5057864;28;19925;-75
2023/05/13 01:31:11;;;;;;;;;;;11.30;53.70;;;;;;5033731;28;19930;-75
2023/05/13 01:33:37;;;;;;;;;;;11.30;55.70;;;;;;5071634;28;19924;-75
2023/05/13 01:36:02;;;;;;;;;;;11.20;51.50;;;;;;5060765;28;19924;-75
2023/05/13 01:38:28;;;;;;;;;;;11.20;54.20;;;;;;5058704;28;19970;-75
2023/05/13 01:40:55;;;;;;;;;;;11.20;57.20;;;;;;5061547;28;19925;-75
2023/05/13 01:43:20;;;;;;;;;;;11.20;53.50;;;;;;5069675;28;20026;-75
2023/05/13 01:45:46;;;;;;;;;;;11.20;55.00;;;;;;5045992;28;19924;-75
2023/05/13 01:48:12;;;;;;;;;;;11.10;50.40;;;;;;5066056;28;19932;-75
2023/05/13 01:50:37;;;;;;;;;;;11.20;53.30;;;;;;5023412;28;19967;-75
2023/05/13 01:53:03;;;;;;;;;;;11.10;53.90;;;;;;5058333;28;19924;-75
2023/05/13 01:55:29;;;;;;;;;;;10.80;51.90;;;;;;5042867;28;19946;-75
2023/05/13 01:57:54;;;;;;;;;;;11.00;52.60;;;;;;5026719;28;19925;-75
2023/05/13 02:00:20;;;;;;;;;;;11.00;55.60;;;;;;5057746;28;19928;-75
2023/05/13 02:02:46;;;;;;;;;;;11.00;58.20;;;;;;5052862;28;20011;-75
2023/05/13 02:05:11;;;;;;;;;;;11.00;64.90;;;;;;5069950;28;19924;-75
2023/05/13 02:07:37;;;;;;;;;;;11.00;75.20;;;;;;5056463;28;19932;-75
2023/05/13 02:10:02;;;;;;;;;;;11.00;83.00;;;;;;5051377;28;19924;-75
2023/05/13 02:12:28;;;;;;;;;;;11.00;72.90;;;;;;5045517;28;20289;-75
2023/05/13 02:14:54;;;;;;;;;;;11.00;72.80;;;;;;5061397;28;19924;-75
2023/05/13 02:17:19;;;;;;;;;;;11.10;67.80;;;;;;5061852;28;20316;-75
2023/05/13 02:19:45;;;;;;;;;;;10.90;64.60;;;;;;5067483;28;19925;-75
2023/05/13 02:22:10;;;;;;;;;;;10.90;63.00;;;;;;5068669;28;20438;-75
2023/05/13 02:24:38;;;;;;;;;;;10.90;77.70;;;;;;5064498;28;19947;-75
2023/05/13 02:27:04;;;;;;;;;;;10.80;76.50;;;;;;5067978;28;20388;-75
2023/05/13 02:29:30;;;;;;;;;;;10.90;82.40;;;;;;5072093;28;19924;-75
2023/05/13 02:31:56;;;;;;;;;;;10.90;76.50;;;;;;5074231;28;20015;-75
2023/05/13 02:34:21;;;;;;;;;;;10.90;71.90;;;;;;5071015;28;19936;-75
2023/05/13 02:36:47;;;;;;;;;;;10.90;67.00;;;;;;5064148;28;19970;-75
2023/05/13 02:39:13;;;;;;;;;;;10.80;73.50;;;;;;5067622;28;19927;-75
2023/05/13 02:41:38;;;;;;;;;;;10.80;72.20;;;;;;5075262;28;19970;-75
2023/05/13 02:44:04;;;;;;;;;;;10.80;70.00;;;;;;5073674;28;19924;-75
2023/05/13 02:46:30;;;;;;;;;;;10.80;71.50;;;;;;5069962;28;20011;-76
2023/05/13 02:48:56;;;;;;;;;;;10.70;69.00;;;;;;5053443;28;19932;-75
2023/05/13 02:51:22;;;;;;;;;;;10.70;69.90;;;;;;5040792;28;19929;-75
2023/05/13 02:53:47;;;;;;;;;;;10.70;81.60;;;;;;5058319;28;20403;-75
2023/05/13 02:56:16;;;;;;;;;;;10.90;74.60;;;;;;5071250;28;20262;-75
2023/05/13 02:58:41;;;;;;;;;;;10.70;76.00;;;;;;5073910;28;19970;-75
2023/05/13 03:01:07;;;;;;;;;;;10.60;84.20;;;;;;5072257;28;20335;-75
2023/05/13 03:03:33;;;;;;;;;;;10.60;85.30;;;;;;5064682;28;19931;-75
2023/05/13 03:05:58;;;;;;;;;;;10.60;94.30;;;;;;5046884;28;19924;-75
2023/05/13 03:08:24;;;;;;;;;;;10.60;99.90;;;;;;5069537;28;19962;-75
2023/05/13 03:10:50;;;;;;;;;;;10.50;99.90;;;;;;5033144;28;19924;-75
2023/05/13 03:13:15;;;;;;;;;;;10.60;99.30;;;;;;5069113;28;19924;-75
2023/05/13 03:15:41;;;;;;;;;;;10.50;99.90;;;;;;5072557;28;20277;-75
2023/05/13 03:18:06;;;;;;;;;;;10.50;95.40;;;;;;5066750;28;20274;-75
2023/05/13 03:20:32;;;;;;;;;;;10.50;96.60;;;;;;5048023;28;19925;-75
2023/05/13 03:22:58;;;;;;;;;;;10.50;99.90;;;;;;5033531;28;20288;-75
2023/05/13 03:25:23;;;;;;;;;;;10.40;94.00;;;;;;5047011;28;19978;-75
2023/05/13 03:27:49;;;;;;;;;;;10.40;92.80;;;;;;5062374;28;19979;-75
2023/05/13 03:30:14;;;;;;;;;;;10.40;95.40;;;;;;5058599;28;19924;-75
2023/05/13 03:32:40;;;;;;;;;;;10.40;95.40;;;;;;5071597;28;19924;-75
2023/05/13 03:35:06;;;;;;;;;;;10.40;99.90;;;;;;5070063;28;20430;-75
2023/05/13 03:37:31;;;;;;;;;;;10.40;99.90;;;;;;5072584;28;19935;-75
2023/05/13 03:39:57;;;;;;;;;;;10.40;99.90;;;;;;5072895;28;19977;-75
2023/05/13 03:42:22;;;;;;;;;;;10.30;99.90;;;;;;5053611;28;19928;-75
2023/05/13 03:44:49;;;;;;;;;;;10.30;99.90;;;;;;5057827;28;19924;-75
2023/05/13 03:47:15;;;;;;;;;;;10.30;99.90;;;;;;5059807;28;19925;-75
2023/05/13 03:49:40;;;;;;;;;;;10.30;99.90;;;;;;5068800;28;20264;-74
2023/05/13 03:52:09;;;;;;;;;;;10.30;99.90;;;;;;5060216;28;20432;-74
2023/05/13 03:54:34;;;;;;;;;;;10.30;99.90;;;;;;5063043;28;19932;-75
2023/05/13 03:57:00;;;;;;;;;;;10.40;99.90;;;;;;5057490;28;19924;-74
2023/05/13 03:59:25;;;;;;;;;;;10.50;99.90;;;;;;5047157;28;20006;-74
2023/05/13 04:01:51;;;;;;;;;;;10.40;99.90;;;;;;5068945;28;19947;-75
2023/05/13 04:04:17;;;;;;;;;;;10.40;99.90;;;;;;5073151;28;20312;-75
2023/05/13 04:06:42;;;;;;;;;;;10.40;99.90;;;;;;5071530;28;19924;-74
2023/05/13 04:09:08;;;;;;;;;;;10.40;99.90;;;;;;5040570;28;20374;-75
2023/05/13 04:11:33;;;;;;;;;;;10.50;99.90;;;;;;5071167;28;21324;-74
2023/05/13 04:13:59;;;;;;;;;;;10.50;99.90;;;;;;5054138;28;19997;-75
2023/05/13 04:16:24;;;;;;;;;;;10.50;99.90;;;;;;5072853;28;20274;-75
2023/05/13 04:18:50;;;;;;;;;;;10.60;99.90;;;;;;5068308;28;20300;-75
2023/05/13 04:21:16;;;;;;;;;;;10.70;99.90;;;;;;5069904;28;19932;-75
2023/05/13 04:23:41;;;;;;;;;;;10.70;99.90;;;;;;5071550;28;19931;-75
2023/05/13 04:26:07;;;;;;;;;;;10.70;99.90;;;;;;5070261;28;20347;-74
2023/05/13 04:28:33;;;;;;;;;;;10.70;99.90;;;;;;5062714;28;19931;-75
2023/05/13 04:30:59;;;;;;;;;;;10.70;99.90;;;;;;5062999;28;19931;-74
2023/05/13 04:33:25;;;;;;;;;;;10.70;99.90;;;;;;5050757;28;19925;-75
2023/05/13 04:35:51;;;;;;;;;;;10.70;99.90;;;;;;5066177;28;20019;-75
2023/05/13 04:38:16;;;;;;;;;;;10.80;99.90;;;;;;5069173;28;20011;-74
2023/05/13 04:40:43;;;;;;;;;;;10.80;99.90;;;;;;5068887;28;20060;-75
2023/05/13 04:43:09;;;;;;;;;;;10.90;99.90;;;;;;5063566;28;19931;-75
2023/05/13 04:45:35;;;;;;;;;;;10.90;99.90;;;;;;5051545;28;19925;-74
2023/05/13 04:48:01;;;;;;;;;;;10.90;99.90;;;;;;5041869;28;19924;-75
2023/05/13 04:50:27;;;;;;;;;;;11.00;99.90;;;;;;5039511;28;20315;-74
2023/05/13 04:52:55;;;;;;;;;;;11.00;99.90;;;;;;5053989;28;19924;-75
2023/05/13 04:55:20;;;;;;;;;;;11.10;99.90;;;;;;5060240;28;20393;-74
2023/05/13 04:57:46;;;;;;;;;;;11.10;99.90;;;;;;5057982;28;19931;-75
2023/05/13 05:00:12;;;;;;;;;;;11.10;99.90;;;;;;5070580;28;20431;-75
2023/05/13 05:02:37;;;;;;;;;;;11.20;99.90;;;;;;5066236;28;19932;-75
2023/05/13 05:05:04;;;;;;;;;;;11.20;99.90;;;;;;5036610;28;19971;-75
2023/05/13 05:07:29;;;;;;;;;;;11.20;99.90;;;;;;5053336;28;20411;-75
2023/05/13 05:09:55;;;;;;;;;;;11.30;99.90;;;;;;5051248;28;19928;-75
2023/05/13 05:12:20;;;;;;;;;;;11.40;99.90;;;;;;5058762;28;19924;-75
2023/05/13 05:14:46;;;;;;;;;;;11.40;99.90;;;;;;5068015;28;19931;-75
2023/05/13 05:17:11;;;;;;;;;;;11.40;99.90;;;;;;5040499;28;19931;-75
2023/05/13 05:19:37;;;;;;;;;;;11.50;99.90;;;;;;5064668;28;20464;-74
2023/05/13 05:22:03;;;;;;;;;;;11.60;99.90;;;;;;5047535;28;19973;-75
2023/05/13 05:24:28;;;;;;;;;;;11.60;99.90;;;;;;5070177;28;20361;-75
2023/05/13 05:26:55;;;;;;;;;;;11.70;99.90;;;;;;5059496;28;19928;-75
2023/05/13 05:29:21;;;;;;;;;;;11.70;99.90;;;;;;5032383;28;19924;-75
2023/05/13 05:31:46;;;;;;;;;;;11.80;99.90;;;;;;5040048;28;19931;-75
2023/05/13 05:34:12;;;;;;;;;;;11.80;99.90;;;;;;5034032;28;19929;-75
2023/05/13 05:36:37;;;;;;;;;;;11.90;99.90;;;;;;5060827;28;19934;-75
2023/05/13 05:39:03;;;;;;;;;;;11.90;99.90;;;;;;5050618;28;19931;-75
2023/05/13 05:41:29;;;;;;;;;;;12.00;99.90;;;;;;5069615;28;20273;-75
2023/05/13 05:43:54;;;;;;;;;;;12.10;99.90;;;;;;5034577;28;19924;-75
2023/05/13 05:46:21;;;;;;;;;;;12.10;99.90;;;;;;5072328;28;20273;-75
2023/05/13 05:48:47;;;;;;;;;;;12.20;99.90;;;;;;5078612;28;19928;-75
2023/05/13 05:51:13;;;;;;;;;;;12.20;99.90;;;;;;5052918;28;19974;-75
2023/05/13 05:53:39;;;;;;;;;;;12.30;99.90;;;;;;5051328;28;19978;-75
2023/05/13 05:56:05;;;;;;;;;;;12.40;99.90;;;;;;5069396;28;19931;-75
2023/05/13 05:58:31;;;;;;;;;;;12.50;99.90;;;;;;5070557;28;19924;-75
2023/05/13 06:00:57;;;;;;;;;;;12.60;99.90;;;;;;5066903;28;19924;-75
2023/05/13 06:03:22;;;;;;;;;;;12.70;99.90;;;;;;5069014;28;19925;-76
2023/05/13 06:05:48;;;;;;;;;;;12.80;99.90;;;;;;5070329;28;19928;-75
2023/05/13 06:08:14;;;;;;;;;;;12.80;99.90;;;;;;5067080;28;20035;-75
2023/05/13 06:10:39;;;;;;;;;;;12.90;99.90;;;;;;5063275;28;19963;-75
2023/05/13 06:13:05;;;;;;;;;;;13.00;99.90;;;;;;5059840;28;20023;-79
2023/05/13 06:15:30;;;;;;;;;;;13.10;99.90;;;;;;5061588;28;19932;-78
2023/05/13 06:17:56;;;;;;;;;;;13.10;99.90;;;;;;5056260;28;19955;-78
2023/05/13 06:20:22;;;;;;;;;;;13.20;99.90;;;;;;5063232;28;20369;-78
2023/05/13 06:22:48;;;;;;;;;;;13.30;99.90;;;;;;5061645;28;19928;-79
2023/05/13 06:25:13;;;;;;;;;;;13.50;99.90;;;;;;5060672;28;19924;-76
2023/05/13 06:27:39;;;;;;;;;;;13.50;99.90;;;;;;5041713;28;19928;-76
2023/05/13 06:30:05;;;;;;;;;;;13.70;99.90;;;;;;5060486;28;19960;-76
2023/05/13 06:32:31;;;;;;;;;;;13.70;99.90;;;;;;5058913;28;20009;-76
2023/05/13 06:34:57;;;;;;;;;;;13.80;99.90;;;;;;5039048;28;19928;-76
2023/05/13 06:37:22;;;;;;;;;;;13.90;99.90;;;;;;5060690;28;19933;-77
2023/05/13 06:39:48;;;;;;;;;;;14.00;99.90;;;;;;5047234;28;19928;-76
2023/05/13 06:42:13;;;;;;;;;;;14.10;95.30;;;;;;5043637;28;19928;-77
2023/05/13 06:44:39;;;;;;;;;;;14.30;78.30;;;;;;5046850;28;19929;-77
2023/05/13 06:47:05;;;;;;;;;;;14.40;90.80;;;;;;5044193;28;20012;-77
2023/05/13 06:49:34;;;;;;;;;;;14.50;84.70;;;;;;5044148;28;20288;-77
2023/05/13 06:51:59;;;;;;;;;;;14.60;76.50;;;;;;5045278;28;20012;-78
2023/05/13 06:54:26;;;;;;;;;;;14.70;73.10;;;;;;5021425;28;20015;-77
2023/05/13 06:56:52;;;;;;;;;;;14.70;71.60;;;;;;5044943;28;19924;-77
2023/05/13 06:59:19;;;;;;;;;;;14.90;69.80;;;;;;5065813;28;19951;-77
2023/05/13 07:01:44;;;;;;;;;;;15.30;54.50;;;;;;5069205;28;19924;-77
2023/05/13 07:04:10;;;;;;;;;;;16.70;55.30;;;;;;5067736;28;19925;-77
2023/05/13 07:06:35;;;;;;;;;;;18.40;29.10;;;;;;5070676;28;20003;-77
2023/05/13 07:09:01;;;;;;;;;;;20.20;9.30;;;;;;5062275;28;19940;-77
2023/05/13 07:11:27;;;;;;;;;;;21.80;1.00;;;;;;5043914;28;20055;-78
2023/05/13 07:13:53;;;;;;;;;;;22.60;1.00;;;;;;5067181;28;19939;-77
2023/05/13 07:16:19;;;;;;;;;;;23.70;1.00;;;;;;5068952;28;19924;-77
2023/05/13 07:18:44;;;;;;;;;;;24.60;1.00;;;;;;5044192;28;19925;-77
2023/05/13 07:21:10;;;;;;;;;;;25.60;1.00;;;;;;5041358;28;19932;-77
2023/05/13 07:23:35;;;;;;;;;;;26.20;1.00;;;;;;5041845;28;19989;-77
2023/05/13 07:26:01;;;;;;;;;;;26.90;1.00;;;;;;5060534;28;19969;-77
2023/05/13 07:28:26;;;;;;;;;;;27.70;1.00;;;;;;5041066;28;19925;-76
2023/05/13 07:30:52;;;;;;;;;;;28.10;1.00;;;;;;5043542;28;19986;-77
2023/05/13 07:33:18;;;;;;;;;;;28.40;1.00;;;;;;5058776;28;20436;-78
2023/05/13 07:35:43;;;;;;;;;;;28.70;1.00;;;;;;5041090;28;19925;-77
2023/05/13 07:38:12;;;;;;;;;;;29.10;1.00;;;;;;5064356;28;20029;-78
2023/05/13 07:40:38;;;;;;;;;;;29.50;1.00;;;;;;5067219;28;20464;-78
2023/05/13 07:43:04;;;;;;;;;;;29.70;1.00;;;;;;5066812;28;19928;-78
2023/05/13 07:45:31;;;;;;;;;;;30.30;1.00;;;;;;5046734;28;19929;-78
2023/05/13 07:47:56;;;;;;;;;;;30.80;1.00;;;;;;5048207;28;19924;-79
2023/05/13 07:50:22;;;;;;;;;;;30.80;1.00;;;;;;5049219;28;19931;-78
2023/05/13 07:52:48;;;;;;;;;;;31.10;1.00;;;;;;5066312;28;19925;-78
2023/05/13 07:55:17;;;;;;;;;;;31.50;1.00;;;;;;5048773;28;19924;-78
2023/05/13 07:57:42;;;;;;;;;;;31.80;1.00;;;;;;5065550;28;19929;-77
2023/05/13 08:00:08;;;;;;;;;;;31.80;1.00;;;;;;5067062;28;19930;-78
2023/05/13 08:02:37;;;;;;;;;;;31.60;1.00;;;;;;5066763;28;19932;-77
2023/05/13 08:05:03;;;;;;;;;;;31.80;1.00;;;;;;5067605;28;20598;-78
2023/05/13 08:07:29;;;;;;;;;;;32.10;1.00;;;;;;5064117;28;20015;-77
2023/05/13 08:09:55;;;;;;;;;;;32.30;1.00;;;;;;5068128;28;20337;-78
2023/05/13 08:12:20;;;;;;;;;;;32.40;1.00;;;;;;5046542;28;19925;-77
2023/05/13 08:14:46;;;;;;;;;;;32.60;1.00;;;;;;5067132;28;19978;-77
2023/05/13 08:17:11;;;;;;;;;;;32.60;1.00;;;;;;5043772;28;20344;-78
2023/05/13 08:19:37;;;;;;;;;;;32.70;1.00;;;;;;5044447;28;20334;-77
2023/05/13 08:22:03;;;;;;;;;;;32.80;1.00;;;;;;5065958;28;19978;-77
2023/05/13 08:24:28;;;;;;;;;;;33.20;99.90;;;;;;5044565;28;19940;-77
2023/05/13 08:26:54;;;;;;;;;;;33.30;99.90;;;;;;5058232;28;20021;-77
2023/05/13 08:29:19;;;;;;;;;;;33.40;99.90;;;;;;5060432;28;19932;-78
2023/05/13 08:31:45;;;;;;;;;;;33.10;99.90;;;;;;5061798;28;19982;-77
2023/05/13 08:34:10;;;;;;;;;;;33.10;99.90;;;;;;5048426;28;19929;-78
2023/05/13 08:36:36;;;;;;;;;;;33.60;99.90;;;;;;5058444;28;19977;-78
2023/05/13 08:39:02;;;;;;;;;;;33.80;99.90;;;;;;5061736;28;19932;-78
2023/05/13 08:41:29;;;;;;;;;;;33.90;99.90;;;;;;5020514;28;19933;-80
2023/05/13 08:43:56;;;;;;;;;;;33.80;99.90;;;;;;5049175;28;20069;-77
2023/05/13 08:46:23;;;;;;;;;;;34.10;99.90;;;;;;5064854;28;19932;-77
2023/05/13 08:48:49;;;;;;;;;;;34.20;99.90;;;;;;5063917;28;20400;-77
2023/05/13 08:51:15;;;;;;;;;;;33.80;99.90;;;;;;5064331;28;19932;-77
2023/05/13 08:53:42;;;;;;;;;;;33.80;99.90;;;;;;5039706;28;20388;-78
2023/05/13 08:56:08;;;;;;;;;;;34.10;99.90;;;;;;5065526;28;19928;-77
2023/05/13 08:58:34;;;;;;;;;;;34.40;99.90;;;;;;5065098;28;19928;-77
2023/05/13 09:01:00;;;;;;;;;;;34.70;99.90;;;;;;5039690;28;20000;-77
2023/05/13 09:03:26;;;;;;;;;;;35.20;99.90;;;;;;5064408;28;20336;-78
2023/05/13 09:05:52;;;;;;;;;;;35.60;99.90;;;;;;5048761;28;19987;-77
2023/05/13 09:08:18;;;;;;;;;;;35.70;99.90;;;;;;5064764;28;19935;-78
2023/05/13 09:10:43;;;;;;;;;;;35.80;99.90;;;;;;5065332;28;19925;-78
2023/05/13 09:13:10;;;;;;;;;;;35.40;99.90;;;;;;5063859;28;20335;-78
2023/05/13 09:15:36;;;;;;;;;;;35.50;99.90;;;;;;5040843;28;19928;-78
2023/05/13 09:18:05;;;;;;;;;;;35.80;99.90;;;;;;5066310;28;19973;-78
2023/05/13 09:20:31;;;;;;;;;;;36.00;99.90;;;;;;5043640;28;19931;-79
2023/05/13 09:22:58;;;;;;;;;;;36.00;99.90;;;;;;5063021;28;20538;-78
2023/05/13 09:25:24;;;;;;;;;;;35.20;99.90;;;;;;5062086;28;20400;-79
2023/05/13 09:27:51;;;;;;;;;;;35.50;99.90;;;;;;5063247;28;20082;-78
2023/05/13 09:30:18;;;;;;;;;;;35.20;99.90;;;;;;5058322;28;19931;-79
2023/05/13 09:32:44;;;;;;;;;;;35.00;99.90;;;;;;5047262;28;19931;-78
2023/05/13 11:03:17;;;;;;;1999.90;999.90;;;38.90;99.90;;;;;;5075934;27;20399;-78
2023/05/13 11:05:46;;;;;;;1999.90;999.90;;;38.70;99.90;;;;;;5065194;28;20048;-77
2023/05/13 11:08:35;;;;;;;1999.90;999.90;;;38.70;99.90;;;;;;5062306;28;20048;-80
2023/05/13 11:11:01;;;;;;;1999.90;999.90;;;38.50;99.90;;;;;;5047195;28;20045;-78
2023/05/13 11:13:36;;;;;;;1999.90;999.90;;;38.50;99.90;;;;;;5039675;28;20040;-79
2023/05/13 11:16:05;;;;;;;1999.90;999.90;;;38.00;99.90;;;;;;5074826;28;20044;-78
2023/05/13 11:18:33;;;;;;;1999.90;999.90;;;38.30;99.90;;;;;;5062344;28;20045;-78
2023/05/13 11:21:03;;;;;;;1999.90;999.90;;;38.40;99.90;;;;;;5055413;28;20500;-77
2023/05/13 11:23:33;;;;;;;1999.90;999.90;;;38.70;99.90;;;;;;5063889;28;20469;-79
2023/05/13 11:26:15;;;;;;;1999.90;999.90;;;38.90;99.90;;;;;;5065399;28;20080;-79
2023/05/13 11:28:59;;;;;;;1999.90;999.90;;;38.70;99.90;;;;;;5076881;28;20060;-78
2023/05/13 11:31:51;;;;;;;1999.90;999.90;;;38.60;99.90;;;;;;5063325;28;20041;-79
2023/05/13 11:34:19;;;;;;;1999.90;999.90;;;38.60;99.90;;;;;;5067267;28;20044;-78
2023/05/13 11:36:47;;;;;;;1999.90;999.90;;;38.10;99.90;;;;;;5044943;28;20067;-79
2023/05/13 11:39:21;;;;;;;1999.90;999.90;;;38.10;99.90;;;;;;5061951;28;20071;-78
2023/05/13 11:41:50;;;;;;;1999.90;999.90;;;38.20;99.90;;;;;;5067393;28;20095;-78
2023/05/13 11:44:21;;;;;;;1999.90;999.90;;;38.50;99.90;;;;;;5065550;28;20076;-79
2023/05/13 11:46:58;;;;;;;1999.90;999.90;;;38.40;99.90;;;;;;5061998;28;20064;-78
2023/05/13 11:49:44;;;;;;;1999.90;999.90;;;38.30;99.90;;;;;;5061147;28;20489;-78
2023/05/13 11:52:14;;;;;;;1999.90;999.90;;;37.70;99.90;;;;;;5074883;28;20039;-79
2023/05/13 11:54:48;;;;;;;1999.90;999.90;;;36.50;99.90;;;;;;5059012;28;20126;-78
2023/05/13 11:57:18;;;;;;;1999.90;999.90;;;35.40;99.90;;;;;;5062830;28;20366;-77
2023/05/13 12:00:00;;;;;;;1999.90;999.90;;;35.60;99.90;;;;;;5063100;28;20048;-78
2023/05/13 12:02:36;;;;;;;1999.90;999.90;;;35.20;99.90;;;;;;5046684;28;21338;-78
2023/05/13 12:05:04;;;;;;;1999.90;999.90;;;35.10;99.90;;;;;;5062014;28;20554;-77
2023/05/13 12:07:31;;;;;;;1999.90;999.90;;;34.30;99.90;;;;;;5063727;28;20377;-78
2023/05/13 12:09:59;;;;;;;1999.90;999.90;;;33.30;99.90;;;;;;5077820;28;20105;-77
2023/05/13 12:12:27;;;;;;;1999.90;999.90;;;32.90;99.90;;;;;;5031517;28;20037;-77
2023/05/13 12:14:55;;;;;;;1999.90;999.90;;;32.30;99.90;;;;;;5064134;28;20048;-78
2023/05/13 12:17:21;;;;;;;1999.90;999.90;;;31.90;99.90;;;;;;5053795;28;20055;-77
2023/05/13 12:20:11;;;;;;;1999.90;999.90;;;31.30;99.90;;;;;;5055998;28;20041;-77
2023/05/13 12:22:43;;;;;;;1999.90;999.90;;;30.30;99.90;;;;;;5048433;28;20032;-78
2023/05/13 12:25:34;;;;;;;1999.90;999.90;;;29.40;99.90;;;;;;5067908;28;20431;-76
2023/05/13 12:28:15;;;;;;;1999.90;999.90;;;28.60;99.90;;;;;;5049042;28;20063;-78
2023/05/13 12:30:47;;;;;;;1999.90;999.90;;;28.30;99.90;;;;;;5030041;28;20049;-77
2023/05/13 12:33:21;;;;;;;1999.90;719.17;;;28.10;99.90;;;;;;5048421;28;20174;-78
2023/05/13 12:35:49;;;;;;;1999.90;999.90;;;28.20;99.90;;;;;;5049946;28;20052;-77
2023/05/13 12:38:17;;;;;;;1999.90;999.90;;;28.30;99.90;;;;;;5031128;28;20048;-77
2023/05/13 12:40:44;;;;;;;1999.90;999.90;;;28.50;99.90;;;;;;5043674;28;21559;-78
2023/05/13 12:43:12;;;;;;;1636.20;496.33;;;28.20;99.90;;;;;;5031012;28;20127;-77
2023/05/13 12:45:39;;;;;;;1999.90;999.90;;;27.90;99.90;;;;;;5048155;28;20084;-77
2023/05/13 12:48:05;;;;;;;1999.90;999.90;;;27.50;99.90;;;;;;5050047;28;20040;-77
2023/05/13 12:50:31;;;;;;;1709.70;655.08;;;27.40;99.90;;;;;;5028529;28;20426;-77
2023/05/13 12:52:58;;;;;;;1999.90;999.90;;;27.20;99.90;;;;;;5048201;28;20095;-76
2023/05/13 12:55:26;;;;;;;1999.90;655.20;;;27.20;99.90;;;;;;5051488;28;20040;-76
2023/05/13 12:58:10;;;;;;;1999.90;999.90;;;27.10;99.90;;;;;;5049383;28;20242;-77
2023/05/13 13:00:35;;;;;;;1999.90;999.90;;;26.90;99.90;;;;;;5064226;28;20481;-77
2023/05/13 13:03:01;;;;;;;1999.90;601.45;;;26.70;99.90;;;;;;5045379;28;20052;-76
2023/05/13 13:05:27;;;;;;;1999.90;740.13;;;26.40;99.90;;;;;;5046737;28;20056;-77
2023/05/13 13:07:53;;;;;;;1728.20;787.90;;;26.30;99.90;;;;;;5055047;28;20036;-76
2023/05/13 13:10:18;;;;;;;1999.90;718.53;;;26.10;99.90;;;;;;5046363;28;20096;-76
2023/05/13 13:12:44;;;;;;;1999.90;999.90;;;26.00;99.90;;;;;;5052211;28;20090;-78
2023/05/13 13:15:10;;;;;;;1999.90;999.90;;;25.90;99.90;;;;;;5077272;28;20194;-76
2023/05/13 13:17:36;;;;;;;1999.90;999.90;;;25.80;99.90;;;;;;5058476;28;20043;-77
2023/05/13 13:20:03;;;;;;;1999.90;999.90;;;25.90;99.90;;;;;;5052637;28;20713;-77
2023/05/13 13:22:29;;;;;;;1999.90;804.05;;;25.80;99.90;;;;;;5033109;28;20045;-77
2023/05/13 13:24:55;;;;;;;1999.90;999.90;;;25.70;99.90;;;;;;5045435;28;20037;-78
2023/05/13 13:27:21;;;;;;;1999.90;781.35;;;25.60;99.90;;;;;;5045547;28;20032;-77
2023/05/13 13:29:46;;;;;;;1999.90;999.90;;;25.50;99.90;;;;;;5032957;28;20055;-77
2023/05/13 13:32:12;;;;;;;1999.90;999.90;;;25.30;99.90;;;;;;5081507;28;21432;-79
2023/05/13 13:34:38;;;;;;;1999.90;999.90;;;25.10;99.90;;;;;;5069324;28;20123;-78
2023/05/13 13:37:04;;;;;;;1999.90;332.98;;;25.10;99.90;;;;;;5043880;28;20074;-79
2023/05/13 13:39:30;;;;;;;1999.90;861.65;;;24.90;99.90;;;;;;5031733;28;20055;-76
2023/05/13 13:41:56;;;;;;;1999.90;999.90;;;24.90;99.90;;;;;;5047328;28;20056;-78
2023/05/13 13:44:22;;;;;;;1999.90;736.28;;;24.80;99.90;;;;;;5048831;28;20128;-78
2023/05/13 13:46:47;;;;;;;1999.90;999.90;;;24.70;99.90;;;;;;5034325;28;20132;-78
2023/05/13 13:49:13;;;;;;;1999.90;890.50;;;24.80;99.90;;;;;;5050274;28;20427;-77
2023/05/13 13:51:39;;;;;;;1999.90;573.30;;;24.70;99.90;;;;;;5045910;28;20112;-77
2023/05/13 13:54:05;;;;;;;1999.90;999.90;;;24.70;99.90;;;;;;5047321;28;20650;-79
2023/05/13 13:56:31;;;;;;;1999.90;999.90;;;24.60;99.90;;;;;;5057911;28;20047;-77
2023/05/13 13:58:57;;;;;;;1999.90;999.90;;;24.50;99.90;;;;;;5047832;28;20040;-78
2023/05/13 14:01:22;;;;;;;1999.90;999.90;;;24.40;99.90;;;;;;5048023;28;21785;-78
2023/05/13 14:03:49;;;;;;;1999.90;995.45;;;24.50;99.90;;;;;;5047695;28;20079;-80
2023/05/13 14:06:15;;;;;;;1999.90;999.90;;;24.60;99.90;;;;;;5047499;28;20045;-79
2023/05/13 14:08:40;;;;;;;1999.90;999.90;;;24.60;99.90;;;;;;5043665;28;20041;-78
2023/05/13 14:11:06;;;;;;;1999.90;628.63;;;24.60;99.90;;;;;;5064358;28;20165;-78
2023/05/13 14:13:32;;;;;;;1999.90;999.90;;;24.50;99.90;;;;;;5043510;28;20179;-78
2023/05/13 14:15:57;;;;;;;1999.90;957.97;;;24.60;99.90;;;;;;5050416;28;20109;-78
2023/05/13 14:18:23;;;;;;;1999.90;999.90;;;24.80;99.90;;;;;;5042988;28;20399;-78
2023/05/13 14:20:49;;;;;;;1999.90;999.90;;;24.70;99.90;;;;;;5047231;28;20120;-78
2023/05/13 14:23:16;;;;;;;1999.90;999.90;;;24.70;99.90;;;;;;5057862;28;20520;-78
2023/05/13 14:25:43;;;;;;;1999.90;999.90;;;24.50;99.90;;;;;;5050709;28;21917;-79
2023/05/13 14:28:11;;;;;;;1999.90;999.90;;;24.40;99.90;;;;;;5042066;28;20044;-78
2023/05/13 14:30:37;;;;;;;1999.90;999.90;;;24.30;99.90;;;;;;5048702;28;20342;-78
2023/05/13 14:33:02;;;;;;;1999.90;999.90;;;24.10;99.90;;;;;;5049676;28;20073;-78
2023/05/13 14:35:28;;;;;;;1999.90;999.90;;;23.90;99.90;;;;;;5051427;28;20056;-79
2023/05/13 14:37:54;;;;;;;1999.90;999.90;;;23.80;99.90;;;;;;5053972;28;20032;-78
2023/05/13 14:40:20;;;;;;;1999.90;496.70;;;23.90;99.90;;;;;;5043061;28;20045;-78
2023/05/13 14:42:46;;;;;;;1999.90;900.03;;;23.90;99.90;;;;;;5045739;28;20496;-78
2023/05/13 14:45:11;;;;;;;1999.90;999.90;;;24.10;99.90;;;;;;5049399;28;20044;-78
2023/05/13 14:47:37;;;;;;;1999.90;999.90;;;24.10;99.90;;;;;;5043165;28;20059;-79
2023/05/13 14:50:03;;;;;;;1999.90;999.90;;;24.20;99.90;;;;;;5046131;28;20472;-78
2023/05/13 14:52:29;;;;;;;1999.90;999.90;;;24.30;99.90;;;;;;5046003;28;20035;-76
2023/05/13 14:54:55;;;;;;;1999.90;525.13;;;24.50;99.90;;;;;;5034430;28;20480;-78
2023/05/13 14:57:21;;;;;;;1999.90;999.90;;;24.70;99.90;;;;;;5046328;28;20095;-77